sensor_id;sensor_type;location;lat;lon;timestamp;temperature;humidity
10468;DHT22;5281;48.878;9.394;2023-04-23T00:01:26;16.90;99.90
10468;DHT22;5281;48.878;9.394;2023-04-23T00:03:55;16.90;99.90
10468;DHT22;5281;48.878;9.394;2023-04-23T00:06:23;16.90;99.90
10468;DHT22;5281;48.878;9.394;2023-04-23T00:08:53;16.90;99.90
10468;DHT22;5281;48.878;9.394;2023-04-23T00:11:21;16.90;99.90
10468;DHT22;5281;48.878;9.394;2023-04-23T00:13:48;16.80;99.90
10468;DHT22;5281;48.878;9.394;2023-04-23T00:16:18;16.80;99.90
10468;DHT22;5281;48.878;9.394;2023-04-23T00:18:45;16.80;99.90
10468;DHT22;5281;48.878;9.394;2023-04-23T00:21:12;16.80;99.90
10468;DHT22;5281;48.878;9.394;2023-04-23T00:23:39;16.80;99.90
10468;DHT22;5281;48.878;9.394;2023-04-23T00:26:08;16.80;99.90
10468;DHT22;5281;48.878;9.394;2023-04-23T00:28:34;16.80;99.90
10468;DHT22;5281;48.878;9.394;2023-04-23T00:31:01;16.70;99.90
10468;DHT22;5281;48.878;9.394;2023-04-23T00:33:28;16.60;99.90
10468;DHT22;5281;48.878;9.394;2023-04-23T00:35:55;16.60;99.90
10468;DHT22;5281;48.878;9.394;2023-04-23T00:38:22;16.60;99.90
10468;DHT22;5281;48.878;9.394;2023-04-23T00:40:50;16.60;99.90
10468;DHT22;5281;48.878;9.394;2023-04-23T00:43:19;16.60;99.90
10468;DHT22;5281;48.878;9.394;2023-04-23T00:45:46;16.50;99.90
10468;DHT22;5281;48.878;9.394;2023-04-23T00:48:13;16.50;99.90
10468;DHT22;5281;48.878;9.394;2023-04-23T00:50:40;16.50;99.90
10468;DHT22;5281;48.878;9.394;2023-04-23T00:53:07;16.60;99.90
10468;DHT22;5281;48.878;9.394;2023-04-23T00:55:34;16.60;99.90
10468;DHT22;5281;48.878;9.394;2023-04-23T00:58:01;16.60;99.90
10468;DHT22;5281;48.878;9.394;2023-04-23T01:00:29;16.60;99.90
10468;DHT22;5281;48.878;9.394;2023-04-23T01:02:57;16.60;99.90
10468;DHT22;5281;48.878;9.394;2023-04-23T01:05:24;16.70;99.90
10468;DHT22;5281;48.878;9.394;2023-04-23T01:07:51;16.60;99.90
10468;DHT22;5281;48.878;9.394;2023-04-23T01:10:18;16.50;99.90
10468;DHT22;5281;48.878;9.394;2023-04-23T01:12:47;16.50;99.90
10468;DHT22;5281;48.878;9.394;2023-04-23T01:15:14;16.50;99.90
10468;DHT22;5281;48.878;9.394;2023-04-23T01:17:42;16.50;99.90
10468;DHT22;5281;48.878;9.394;2023-04-23T01:20:10;16.40;99.90
10468;DHT22;5281;48.878;9.394;2023-04-23T01:22:38;16.40;99.90
10468;DHT22;5281;48.878;9.394;2023-04-23T01:25:06;16.30;99.90
10468;DHT22;5281;48.878;9.394;2023-04-23T01:27:35;16.40;99.90
10468;DHT22;5281;48.878;9.394;2023-04-23T01:30:04;16.30;99.90
10468;DHT22;5281;48.878;9.394;2023-04-23T01:32:32;16.20;99.90
10468;DHT22;5281;48.878;9.394;2023-04-23T01:34:59;16.20;99.90
10468;DHT22;5281;48.878;9.394;2023-04-23T01:37:27;16.20;99.90
10468;DHT22;5281;48.878;9.394;2023-04-23T01:39:56;16.20;99.90
10468;DHT22;5281;48.878;9.394;2023-04-23T01:42:24;16.20;99.90
10468;DHT22;5281;48.878;9.394;2023-04-23T01:44:50;16.20;99.90
10468;DHT22;5281;48.878;9.394;2023-04-23T01:47:18;16.20;99.90
10468;DHT22;5281;48.878;9.394;2023-04-23T01:49:45;16.10;99.90
10468;DHT22;5281;48.878;9.394;2023-04-23T01:52:12;16.00;99.90
10468;DHT22;5281;48.878;9.394;2023-04-23T01:54:39;16.00;99.90
10468;DHT22;5281;48.878;9.394;2023-04-23T01:57:08;16.00;99.90
10468;DHT22;5281;48.878;9.394;2023-04-23T01:59:36;16.00;99.90
10468;DHT22;5281;48.878;9.394;2023-04-23T02:02:03;16.10;99.90
10468;DHT22;5281;48.878;9.394;2023-04-23T02:04:30;16.00;99.90
10468;DHT22;5281;48.878;9.394;2023-04-23T02:06:57;16.00;99.90
10468;DHT22;5281;48.878;9.394;2023-04-23T02:09:23;16.00;99.90
10468;DHT22;5281;48.878;9.394;2023-04-23T02:11:50;16.00;99.90
10468;DHT22;5281;48.878;9.394;2023-04-23T02:14:18;15.90;99.90
10468;DHT22;5281;48.878;9.394;2023-04-23T02:16:45;15.90;99.90
10468;DHT22;5281;48.878;9.394;2023-04-23T02:19:12;15.80;99.90
10468;DHT22;5281;48.878;9.394;2023-04-23T02:21:41;15.70;99.90
10468;DHT22;5281;48.878;9.394;2023-04-23T02:24:07;15.70;99.90
10468;DHT22;5281;48.878;9.394;2023-04-23T02:26:34;15.70;99.90
10468;DHT22;5281;48.878;9.394;2023-04-23T02:29:01;15.50;99.90
10468;DHT22;5281;48.878;9.394;2023-04-23T02:31:29;15.50;99.90
10468;DHT22;5281;48.878;9.394;2023-04-23T02:33:56;15.60;99.90
10468;DHT22;5281;48.878;9.394;2023-04-23T02:36:23;15.60;99.90
10468;DHT22;5281;48.878;9.394;2023-04-23T02:38:50;15.60;99.90
10468;DHT22;5281;48.878;9.394;2023-04-23T02:41:17;15.60;99.90
10468;DHT22;5281;48.878;9.394;2023-04-23T02:43:44;15.50;99.90
10468;DHT22;5281;48.878;9.394;2023-04-23T02:46:11;15.60;99.90
10468;DHT22;5281;48.878;9.394;2023-04-23T02:48:40;15.50;99.90
10468;DHT22;5281;48.878;9.394;2023-04-23T02:51:09;15.50;99.90
10468;DHT22;5281;48.878;9.394;2023-04-23T02:53:37;15.50;99.90
10468;DHT22;5281;48.878;9.394;2023-04-23T02:56:03;15.50;99.90
10468;DHT22;5281;48.878;9.394;2023-04-23T02:58:32;15.50;99.90
10468;DHT22;5281;48.878;9.394;2023-04-23T03:00:59;15.50;99.90
10468;DHT22;5281;48.878;9.394;2023-04-23T03:03:26;15.50;99.90
10468;DHT22;5281;48.878;9.394;2023-04-23T03:05:58;15.40;99.90
10468;DHT22;5281;48.878;9.394;2023-04-23T03:08:25;15.40;99.90
10468;DHT22;5281;48.878;9.394;2023-04-23T03:10:52;15.30;99.90
10468;DHT22;5281;48.878;9.394;2023-04-23T03:13:19;15.30;99.90
10468;DHT22;5281;48.878;9.394;2023-04-23T03:15:47;15.20;99.90
10468;DHT22;5281;48.878;9.394;2023-04-23T03:18:14;15.20;99.90
10468;DHT22;5281;48.878;9.394;2023-04-23T03:20:41;15.20;99.90
10468;DHT22;5281;48.878;9.394;2023-04-23T03:23:09;15.10;99.90
10468;DHT22;5281;48.878;9.394;2023-04-23T03:25:36;15.10;99.90
10468;DHT22;5281;48.878;9.394;2023-04-23T03:28:03;15.10;99.90
10468;DHT22;5281;48.878;9.394;2023-04-23T03:30:30;15.00;99.90
10468;DHT22;5281;48.878;9.394;2023-04-23T03:32:58;15.00;99.90
10468;DHT22;5281;48.878;9.394;2023-04-23T03:35:25;15.00;99.90
10468;DHT22;5281;48.878;9.394;2023-04-23T03:37:52;15.00;99.90
10468;DHT22;5281;48.878;9.394;2023-04-23T03:40:20;14.90;99.90
10468;DHT22;5281;48.878;9.394;2023-04-23T03:42:47;14.90;99.90
10468;DHT22;5281;48.878;9.394;2023-04-23T03:45:14;14.80;99.90
10468;DHT22;5281;48.878;9.394;2023-04-23T03:47:41;14.80;99.90
10468;DHT22;5281;48.878;9.394;2023-04-23T03:50:09;14.70;99.90
10468;DHT22;5281;48.878;9.394;2023-04-23T03:52:37;14.70;99.90
10468;DHT22;5281;48.878;9.394;2023-04-23T03:55:04;14.60;99.90
10468;DHT22;5281;48.878;9.394;2023-04-23T03:57:33;14.50;99.90
10468;DHT22;5281;48.878;9.394;2023-04-23T04:00:00;14.50;99.90
10468;DHT22;5281;48.878;9.394;2023-04-23T04:02:27;14.40;99.90
10468;DHT22;5281;48.878;9.394;2023-04-23T04:04:54;14.50;99.90
10468;DHT22;5281;48.878;9.394;2023-04-23T04:07:21;14.40;99.90
10468;DHT22;5281;48.878;9.394;2023-04-23T04:09:47;14.40;99.90
10468;DHT22;5281;48.878;9.394;2023-04-23T04:12:15;14.40;99.90
10468;DHT22;5281;48.878;9.394;2023-04-23T04:14:43;14.40;99.90
10468;DHT22;5281;48.878;9.394;2023-04-23T04:17:10;14.40;99.90
10468;DHT22;5281;48.878;9.394;2023-04-23T04:19:40;14.40;99.90
10468;DHT22;5281;48.878;9.394;2023-04-23T04:22:07;14.40;99.90
10468;DHT22;5281;48.878;9.394;2023-04-23T04:24:34;14.40;99.90
10468;DHT22;5281;48.878;9.394;2023-04-23T04:27:00;14.50;99.90
10468;DHT22;5281;48.878;9.394;2023-04-23T04:29:27;14.50;99.90
10468;DHT22;5281;48.878;9.394;2023-04-23T04:31:57;14.50;99.90
10468;DHT22;5281;48.878;9.394;2023-04-23T04:34:24;14.50;99.90
10468;DHT22;5281;48.878;9.394;2023-04-23T04:36:51;14.60;99.90
10468;DHT22;5281;48.878;9.394;2023-04-23T04:39:18;14.50;99.90
10468;DHT22;5281;48.878;9.394;2023-04-23T04:41:45;14.50;99.90
10468;DHT22;5281;48.878;9.394;2023-04-23T04:44:12;14.50;99.90
10468;DHT22;5281;48.878;9.394;2023-04-23T04:46:41;14.40;99.90
10468;DHT22;5281;48.878;9.394;2023-04-23T04:49:09;14.30;99.90
10468;DHT22;5281;48.878;9.394;2023-04-23T04:51:37;14.30;99.90
10468;DHT22;5281;48.878;9.394;2023-04-23T04:54:04;14.30;99.90
10468;DHT22;5281;48.878;9.394;2023-04-23T04:56:32;14.40;99.90
10468;DHT22;5281;48.878;9.394;2023-04-23T04:58:59;14.40;99.90
10468;DHT22;5281;48.878;9.394;2023-04-23T05:01:27;14.30;99.90
10468;DHT22;5281;48.878;9.394;2023-04-23T05:03:54;14.30;99.90
10468;DHT22;5281;48.878;9.394;2023-04-23T05:06:22;14.30;99.90
10468;DHT22;5281;48.878;9.394;2023-04-23T05:08:49;14.20;99.90
10468;DHT22;5281;48.878;9.394;2023-04-23T05:11:17;14.20;99.90
10468;DHT22;5281;48.878;9.394;2023-04-23T05:13:44;14.20;99.90
10468;DHT22;5281;48.878;9.394;2023-04-23T05:16:11;14.20;99.90
10468;DHT22;5281;48.878;9.394;2023-04-23T05:18:38;14.20;99.90
10468;DHT22;5281;48.878;9.394;2023-04-23T05:21:06;14.40;99.90
10468;DHT22;5281;48.878;9.394;2023-04-23T05:23:34;14.60;99.90
10468;DHT22;5281;48.878;9.394;2023-04-23T05:26:01;14.70;99.90
10468;DHT22;5281;48.878;9.394;2023-04-23T05:28:29;14.80;99.90
10468;DHT22;5281;48.878;9.394;2023-04-23T05:30:56;14.90;99.90
10468;DHT22;5281;48.878;9.394;2023-04-23T05:33:23;15.10;99.90
10468;DHT22;5281;48.878;9.394;2023-04-23T05:35:50;15.20;99.90
10468;DHT22;5281;48.878;9.394;2023-04-23T05:38:17;15.50;99.90
10468;DHT22;5281;48.878;9.394;2023-04-23T05:40:45;15.70;99.90
10468;DHT22;5281;48.878;9.394;2023-04-23T05:43:12;16.00;99.90
10468;DHT22;5281;48.878;9.394;2023-04-23T05:45:39;16.30;99.90
10468;DHT22;5281;48.878;9.394;2023-04-23T05:48:06;16.50;99.90
10468;DHT22;5281;48.878;9.394;2023-04-23T05:50:33;16.60;99.90
10468;DHT22;5281;48.878;9.394;2023-04-23T05:53:00;16.70;99.90
10468;DHT22;5281;48.878;9.394;2023-04-23T05:55:26;16.70;99.90
10468;DHT22;5281;48.878;9.394;2023-04-23T05:57:55;16.70;99.90
10468;DHT22;5281;48.878;9.394;2023-04-23T06:00:21;16.80;99.90
10468;DHT22;5281;48.878;9.394;2023-04-23T06:02:48;16.80;99.90
10468;DHT22;5281;48.878;9.394;2023-04-23T06:05:16;16.80;99.90
10468;DHT22;5281;48.878;9.394;2023-04-23T06:07:42;16.80;99.90
10468;DHT22;5281;48.878;9.394;2023-04-23T06:10:10;16.80;99.90
10468;DHT22;5281;48.878;9.394;2023-04-23T06:12:37;16.80;99.90
10468;DHT22;5281;48.878;9.394;2023-04-23T06:15:07;16.80;99.90
10468;DHT22;5281;48.878;9.394;2023-04-23T06:17:34;16.80;99.90
10468;DHT22;5281;48.878;9.394;2023-04-23T06:20:01;16.70;99.90
10468;DHT22;5281;48.878;9.394;2023-04-23T06:22:29;16.60;99.90
10468;DHT22;5281;48.878;9.394;2023-04-23T06:24:56;16.60;99.90
10468;DHT22;5281;48.878;9.394;2023-04-23T06:27:23;16.60;99.90
10468;DHT22;5281;48.878;9.394;2023-04-23T06:29:51;16.70;99.90
10468;DHT22;5281;48.878;9.394;2023-04-23T06:32:20;16.70;99.90
10468;DHT22;5281;48.878;9.394;2023-04-23T06:34:47;16.70;99.90
10468;DHT22;5281;48.878;9.394;2023-04-23T06:37:14;16.80;99.90
10468;DHT22;5281;48.878;9.394;2023-04-23T06:39:41;17.10;99.90
10468;DHT22;5281;48.878;9.394;2023-04-23T06:42:07;17.50;99.90
10468;DHT22;5281;48.878;9.394;2023-04-23T06:44:34;18.20;99.90
10468;DHT22;5281;48.878;9.394;2023-04-23T06:47:01;20.20;99.90
10468;DHT22;5281;48.878;9.394;2023-04-23T06:49:29;21.60;99.90
10468;DHT22;5281;48.878;9.394;2023-04-23T06:51:56;21.80;99.90
10468;DHT22;5281;48.878;9.394;2023-04-23T06:54:23;21.70;99.90
10468;DHT22;5281;48.878;9.394;2023-04-23T06:56:50;21.50;99.90
10468;DHT22;5281;48.878;9.394;2023-04-23T06:59:16;21.30;99.90
10468;DHT22;5281;48.878;9.394;2023-04-23T07:01:44;21.10;99.90
10468;DHT22;5281;48.878;9.394;2023-04-23T07:04:10;20.90;99.90
10468;DHT22;5281;48.878;9.394;2023-04-23T07:06:39;20.70;99.90
10468;DHT22;5281;48.878;9.394;2023-04-23T07:09:06;20.70;99.90
10468;DHT22;5281;48.878;9.394;2023-04-23T07:11:33;20.60;99.90
10468;DHT22;5281;48.878;9.394;2023-04-23T07:14:01;20.70;99.90
10468;DHT22;5281;48.878;9.394;2023-04-23T07:16:28;22.20;99.90
10468;DHT22;5281;48.878;9.394;2023-04-23T07:18:57;23.40;99.90
10468;DHT22;5281;48.878;9.394;2023-04-23T07:21:25;24.50;99.90
10468;DHT22;5281;48.878;9.394;2023-04-23T07:23:55;25.20;99.90
10468;DHT22;5281;48.878;9.394;2023-04-23T07:26:23;25.40;99.90
10468;DHT22;5281;48.878;9.394;2023-04-23T07:28:50;25.50;99.90
10468;DHT22;5281;48.878;9.394;2023-04-23T07:31:16;25.40;99.90
10468;DHT22;5281;48.878;9.394;2023-04-23T07:33:44;25.10;99.90
10468;DHT22;5281;48.878;9.394;2023-04-23T07:36:11;24.70;99.90
10468;DHT22;5281;48.878;9.394;2023-04-23T07:38:37;24.10;99.90
10468;DHT22;5281;48.878;9.394;2023-04-23T07:41:06;23.50;99.90
10468;DHT22;5281;48.878;9.394;2023-04-23T07:43:33;23.00;99.90
10468;DHT22;5281;48.878;9.394;2023-04-23T07:45:59;22.40;99.90
10468;DHT22;5281;48.878;9.394;2023-04-23T07:48:26;22.10;99.90
10468;DHT22;5281;48.878;9.394;2023-04-23T07:50:53;21.80;99.90
10468;DHT22;5281;48.878;9.394;2023-04-23T07:53:21;21.60;99.90
10468;DHT22;5281;48.878;9.394;2023-04-23T07:55:47;21.50;99.90
10468;DHT22;5281;48.878;9.394;2023-04-23T07:58:16;21.60;99.90
10468;DHT22;5281;48.878;9.394;2023-04-23T08:00:42;21.90;99.90
10468;DHT22;5281;48.878;9.394;2023-04-23T08:03:09;22.00;99.90
10468;DHT22;5281;48.878;9.394;2023-04-23T08:05:36;22.20;99.90
10468;DHT22;5281;48.878;9.394;2023-04-23T08:08:05;22.40;99.90
10468;DHT22;5281;48.878;9.394;2023-04-23T08:10:32;22.50;99.90
10468;DHT22;5281;48.878;9.394;2023-04-23T08:12:59;22.20;99.90
10468;DHT22;5281;48.878;9.394;2023-04-23T08:15:27;21.80;99.90
10468;DHT22;5281;48.878;9.394;2023-04-23T08:17:54;21.40;99.90
10468;DHT22;5281;48.878;9.394;2023-04-23T08:20:21;21.00;99.90
10468;DHT22;5281;48.878;9.394;2023-04-23T08:22:48;20.90;99.90
10468;DHT22;5281;48.878;9.394;2023-04-23T08:25:18;20.70;99.90
10468;DHT22;5281;48.878;9.394;2023-04-23T08:27:44;20.40;99.90
10468;DHT22;5281;48.878;9.394;2023-04-23T08:30:12;20.20;99.90
10468;DHT22;5281;48.878;9.394;2023-04-23T08:32:40;19.50;99.90
10468;DHT22;5281;48.878;9.394;2023-04-23T08:35:07;18.90;99.90
10468;DHT22;5281;48.878;9.394;2023-04-23T08:37:34;18.60;99.90
10468;DHT22;5281;48.878;9.394;2023-04-23T08:40:04;18.50;99.90
10468;DHT22;5281;48.878;9.394;2023-04-23T08:42:37;18.40;99.90
10468;DHT22;5281;48.878;9.394;2023-04-23T08:45:05;18.50;99.90
10468;DHT22;5281;48.878;9.394;2023-04-23T08:47:32;18.50;99.90
10468;DHT22;5281;48.878;9.394;2023-04-23T08:50:03;18.30;99.90
10468;DHT22;5281;48.878;9.394;2023-04-23T08:52:32;18.30;99.90
10468;DHT22;5281;48.878;9.394;2023-04-23T08:55:01;18.10;99.90
10468;DHT22;5281;48.878;9.394;2023-04-23T08:57:30;17.90;99.90
10468;DHT22;5281;48.878;9.394;2023-04-23T08:59:57;17.70;99.90
10468;DHT22;5281;48.878;9.394;2023-04-23T09:02:25;17.60;99.90
10468;DHT22;5281;48.878;9.394;2023-04-23T09:04:53;17.40;99.90
10468;DHT22;5281;48.878;9.394;2023-04-23T09:07:21;17.30;99.90
10468;DHT22;5281;48.878;9.394;2023-04-23T09:09:48;17.20;99.90
10468;DHT22;5281;48.878;9.394;2023-04-23T09:12:15;17.30;99.90
10468;DHT22;5281;48.878;9.394;2023-04-23T09:14:42;17.50;99.90
10468;DHT22;5281;48.878;9.394;2023-04-23T09:17:09;17.90;99.90
10468;DHT22;5281;48.878;9.394;2023-04-23T09:19:38;18.30;99.90
10468;DHT22;5281;48.878;9.394;2023-04-23T09:22:06;18.70;99.90
10468;DHT22;5281;48.878;9.394;2023-04-23T09:24:35;19.00;99.90
10468;DHT22;5281;48.878;9.394;2023-04-23T09:27:02;19.40;99.90
10468;DHT22;5281;48.878;9.394;2023-04-23T09:29:29;20.00;99.90
10468;DHT22;5281;48.878;9.394;2023-04-23T09:32:04;20.70;99.90
10468;DHT22;5281;48.878;9.394;2023-04-23T09:34:34;21.30;99.90
10468;DHT22;5281;48.878;9.394;2023-04-23T09:37:01;21.80;99.90
10468;DHT22;5281;48.878;9.394;2023-04-23T09:39:29;22.00;99.90
10468;DHT22;5281;48.878;9.394;2023-04-23T09:42:03;22.20;99.90
10468;DHT22;5281;48.878;9.394;2023-04-23T09:44:31;22.30;99.90
10468;DHT22;5281;48.878;9.394;2023-04-23T09:47:05;22.20;99.90
10468;DHT22;5281;48.878;9.394;2023-04-23T09:49:44;22.20;99.90
10468;DHT22;5281;48.878;9.394;2023-04-23T09:52:11;22.30;99.90
10468;DHT22;5281;48.878;9.394;2023-04-23T09:54:38;22.20;99.90
10468;DHT22;5281;48.878;9.394;2023-04-23T09:57:06;22.10;99.60
10468;DHT22;5281;48.878;9.394;2023-04-23T09:59:34;22.30;99.80
10468;DHT22;5281;48.878;9.394;2023-04-23T10:02:03;22.50;99.20
10468;DHT22;5281;48.878;9.394;2023-04-23T10:04:31;22.40;99.90
10468;DHT22;5281;48.878;9.394;2023-04-23T10:06:59;22.40;99.90
10468;DHT22;5281;48.878;9.394;2023-04-23T10:09:27;22.20;99.90
10468;DHT22;5281;48.878;9.394;2023-04-23T10:11:56;22.20;99.30
10468;DHT22;5281;48.878;9.394;2023-04-23T10:14:26;22.20;99.70
10468;DHT22;5281;48.878;9.394;2023-04-23T10:16:57;22.30;99.50
10468;DHT22;5281;48.878;9.394;2023-04-23T10:19:24;22.30;99.60
10468;DHT22;5281;48.878;9.394;2023-04-23T10:21:53;22.00;99.90
10468;DHT22;5281;48.878;9.394;2023-04-23T10:24:23;21.80;99.80
10468;DHT22;5281;48.878;9.394;2023-04-23T10:26:56;21.80;99.90
10468;DHT22;5281;48.878;9.394;2023-04-23T10:29:28;21.90;99.90
10468;DHT22;5281;48.878;9.394;2023-04-23T10:31:56;22.20;99.60
10468;DHT22;5281;48.878;9.394;2023-04-23T10:34:24;22.50;98.60
10468;DHT22;5281;48.878;9.394;2023-04-23T10:36:51;22.80;98.70
10468;DHT22;5281;48.878;9.394;2023-04-23T10:39:19;23.00;97.50
10468;DHT22;5281;48.878;9.394;2023-04-23T10:41:47;23.00;98.00
10468;DHT22;5281;48.878;9.394;2023-04-23T10:44:14;22.90;97.30
10468;DHT22;5281;48.878;9.394;2023-04-23T10:46:52;22.80;97.30
10468;DHT22;5281;48.878;9.394;2023-04-23T10:49:22;22.80;97.50
10468;DHT22;5281;48.878;9.394;2023-04-23T10:51:57;22.70;96.90
10468;DHT22;5281;48.878;9.394;2023-04-23T10:54:28;22.70;96.90
10468;DHT22;5281;48.878;9.394;2023-04-23T10:56:58;22.70;96.90
10468;DHT22;5281;48.878;9.394;2023-04-23T10:59:26;23.00;96.50
10468;DHT22;5281;48.878;9.394;2023-04-23T11:01:57;23.00;95.80
10468;DHT22;5281;48.878;9.394;2023-04-23T11:04:26;23.30;95.10
10468;DHT22;5281;48.878;9.394;2023-04-23T11:06:55;23.70;93.40
10468;DHT22;5281;48.878;9.394;2023-04-23T11:09:29;24.10;92.10
10468;DHT22;5281;48.878;9.394;2023-04-23T11:11:56;24.50;91.20
10468;DHT22;5281;48.878;9.394;2023-04-23T11:14:33;24.70;90.60
10468;DHT22;5281;48.878;9.394;2023-04-23T11:17:02;24.80;89.00
10468;DHT22;5281;48.878;9.394;2023-04-23T11:19:29;25.00;90.10
10468;DHT22;5281;48.878;9.394;2023-04-23T11:22:02;25.10;87.90
10468;DHT22;5281;48.878;9.394;2023-04-23T11:24:31;25.20;86.10
10468;DHT22;5281;48.878;9.394;2023-04-23T11:26:58;25.00;85.60
10468;DHT22;5281;48.878;9.394;2023-04-23T11:29:26;24.50;87.10
10468;DHT22;5281;48.878;9.394;2023-04-23T11:31:54;24.40;87.20
10468;DHT22;5281;48.878;9.394;2023-04-23T11:34:23;24.50;85.50
10468;DHT22;5281;48.878;9.394;2023-04-23T11:36:52;24.40;83.90
10468;DHT22;5281;48.878;9.394;2023-04-23T11:39:19;24.40;83.70
10468;DHT22;5281;48.878;9.394;2023-04-23T11:41:46;24.30;82.40
10468;DHT22;5281;48.878;9.394;2023-04-23T11:44:14;24.10;82.30
10468;DHT22;5281;48.878;9.394;2023-04-23T11:46:41;24.20;82.20
10468;DHT22;5281;48.878;9.394;2023-04-23T11:49:08;24.40;82.90
10468;DHT22;5281;48.878;9.394;2023-04-23T11:51:42;24.70;82.20
10468;DHT22;5281;48.878;9.394;2023-04-23T11:54:09;25.10;81.60
10468;DHT22;5281;48.878;9.394;2023-04-23T11:56:38;25.50;80.70
10468;DHT22;5281;48.878;9.394;2023-04-23T11:59:05;25.80;79.20
10468;DHT22;5281;48.878;9.394;2023-04-23T12:01:40;26.00;78.90
10468;DHT22;5281;48.878;9.394;2023-04-23T12:04:11;26.10;77.80
10468;DHT22;5281;48.878;9.394;2023-04-23T12:06:42;26.10;77.70
10468;DHT22;5281;48.878;9.394;2023-04-23T12:09:09;26.20;76.60
10468;DHT22;5281;48.878;9.394;2023-04-23T12:11:37;26.40;75.70
10468;DHT22;5281;48.878;9.394;2023-04-23T12:14:05;26.60;74.60
10468;DHT22;5281;48.878;9.394;2023-04-23T12:16:37;26.50;74.50
10468;DHT22;5281;48.878;9.394;2023-04-23T12:19:06;26.30;74.50
10468;DHT22;5281;48.878;9.394;2023-04-23T12:21:34;26.30;74.50
10468;DHT22;5281;48.878;9.394;2023-04-23T12:24:04;26.30;73.80
10468;DHT22;5281;48.878;9.394;2023-04-23T12:26:31;26.40;73.10
10468;DHT22;5281;48.878;9.394;2023-04-23T12:28:59;26.30;72.60
10468;DHT22;5281;48.878;9.394;2023-04-23T12:31:27;26.00;74.50
10468;DHT22;5281;48.878;9.394;2023-04-23T12:33:57;26.00;74.40
10468;DHT22;5281;48.878;9.394;2023-04-23T12:36:26;25.50;73.70
10468;DHT22;5281;48.878;9.394;2023-04-23T12:39:23;25.30;74.40
10468;DHT22;5281;48.878;9.394;2023-04-23T12:41:52;25.30;74.70
10468;DHT22;5281;48.878;9.394;2023-04-23T12:44:19;25.40;74.40
10468;DHT22;5281;48.878;9.394;2023-04-23T12:46:49;25.70;74.00
10468;DHT22;5281;48.878;9.394;2023-04-23T12:49:19;25.90;73.20
10468;DHT22;5281;48.878;9.394;2023-04-23T12:51:46;25.50;74.70
10468;DHT22;5281;48.878;9.394;2023-04-23T12:54:13;25.10;76.30
10468;DHT22;5281;48.878;9.394;2023-04-23T12:56:41;24.80;77.10
10468;DHT22;5281;48.878;9.394;2023-04-23T12:59:08;24.80;77.70
10468;DHT22;5281;48.878;9.394;2023-04-23T13:01:35;24.90;77.60
10468;DHT22;5281;48.878;9.394;2023-04-23T13:04:02;24.80;76.70
10468;DHT22;5281;48.878;9.394;2023-04-23T13:06:29;24.50;77.70
10468;DHT22;5281;48.878;9.394;2023-04-23T13:08:56;24.50;78.30
10468;DHT22;5281;48.878;9.394;2023-04-23T13:11:25;24.30;79.60
10468;DHT22;5281;48.878;9.394;2023-04-23T13:13:53;24.40;78.90
10468;DHT22;5281;48.878;9.394;2023-04-23T13:16:20;24.70;78.50
10468;DHT22;5281;48.878;9.394;2023-04-23T13:18:47;24.50;76.40
10468;DHT22;5281;48.878;9.394;2023-04-23T13:21:15;24.30;76.60
10468;DHT22;5281;48.878;9.394;2023-04-23T13:23:42;24.30;76.50
10468;DHT22;5281;48.878;9.394;2023-04-23T13:26:09;24.40;76.60
10468;DHT22;5281;48.878;9.394;2023-04-23T13:28:36;24.50;74.80
10468;DHT22;5281;48.878;9.394;2023-04-23T13:31:05;24.50;76.10
10468;DHT22;5281;48.878;9.394;2023-04-23T13:33:32;24.50;75.70
10468;DHT22;5281;48.878;9.394;2023-04-23T13:36:00;24.50;75.50
10468;DHT22;5281;48.878;9.394;2023-04-23T13:38:27;24.50;75.20
10468;DHT22;5281;48.878;9.394;2023-04-23T13:40:54;24.40;74.60
10468;DHT22;5281;48.878;9.394;2023-04-23T13:43:21;24.40;75.10
10468;DHT22;5281;48.878;9.394;2023-04-23T13:45:48;24.50;74.70
10468;DHT22;5281;48.878;9.394;2023-04-23T13:48:17;24.40;73.90
10468;DHT22;5281;48.878;9.394;2023-04-23T13:50:44;24.30;74.80
10468;DHT22;5281;48.878;9.394;2023-04-23T13:53:11;24.40;73.90
10468;DHT22;5281;48.878;9.394;2023-04-23T13:55:38;24.40;73.90
10468;DHT22;5281;48.878;9.394;2023-04-23T13:58:05;24.50;72.90
10468;DHT22;5281;48.878;9.394;2023-04-23T14:00:32;24.50;72.20
10468;DHT22;5281;48.878;9.394;2023-04-23T14:02:59;24.40;72.70
10468;DHT22;5281;48.878;9.394;2023-04-23T14:05:28;24.30;72.60
10468;DHT22;5281;48.878;9.394;2023-04-23T14:07:54;24.30;73.20
10468;DHT22;5281;48.878;9.394;2023-04-23T14:10:21;24.10;73.60
10468;DHT22;5281;48.878;9.394;2023-04-23T14:12:49;24.00;75.10
10468;DHT22;5281;48.878;9.394;2023-04-23T14:15:16;23.90;74.80
10468;DHT22;5281;48.878;9.394;2023-04-23T14:17:43;23.80;75.40
10468;DHT22;5281;48.878;9.394;2023-04-23T14:20:11;23.80;75.40
10468;DHT22;5281;48.878;9.394;2023-04-23T14:22:41;23.90;75.30
10468;DHT22;5281;48.878;9.394;2023-04-23T14:25:09;23.90;75.30
10468;DHT22;5281;48.878;9.394;2023-04-23T14:27:40;24.00;75.40
10468;DHT22;5281;48.878;9.394;2023-04-23T14:30:14;24.10;74.60
10468;DHT22;5281;48.878;9.394;2023-04-23T14:32:42;24.50;73.90
10468;DHT22;5281;48.878;9.394;2023-04-23T14:35:10;24.70;73.50
10468;DHT22;5281;48.878;9.394;2023-04-23T14:37:37;24.70;72.40
10468;DHT22;5281;48.878;9.394;2023-04-23T14:40:09;24.50;72.60
10468;DHT22;5281;48.878;9.394;2023-04-23T14:42:37;24.40;73.30
10468;DHT22;5281;48.878;9.394;2023-04-23T14:45:05;24.40;73.90
10468;DHT22;5281;48.878;9.394;2023-04-23T14:47:32;24.40;74.30
10468;DHT22;5281;48.878;9.394;2023-04-23T14:49:58;24.40;75.10
10468;DHT22;5281;48.878;9.394;2023-04-23T14:52:26;24.50;75.30
10468;DHT22;5281;48.878;9.394;2023-04-23T14:54:53;24.70;74.20
10468;DHT22;5281;48.878;9.394;2023-04-23T14:57:21;24.80;73.50
10468;DHT22;5281;48.878;9.394;2023-04-23T14:59:48;24.90;74.40
10468;DHT22;5281;48.878;9.394;2023-04-23T15:02:15;24.70;74.60
10468;DHT22;5281;48.878;9.394;2023-04-23T15:04:42;24.70;74.10
10468;DHT22;5281;48.878;9.394;2023-04-23T15:07:08;24.70;74.10
10468;DHT22;5281;48.878;9.394;2023-04-23T15:09:35;24.80;74.10
10468;DHT22;5281;48.878;9.394;2023-04-23T15:12:05;24.90;73.60
10468;DHT22;5281;48.878;9.394;2023-04-23T15:14:45;24.90;72.70
10468;DHT22;5281;48.878;9.394;2023-04-23T15:17:13;25.00;72.50
10468;DHT22;5281;48.878;9.394;2023-04-23T15:19:40;24.90;72.50
10468;DHT22;5281;48.878;9.394;2023-04-23T15:22:06;24.80;72.20
10468;DHT22;5281;48.878;9.394;2023-04-23T15:24:33;24.70;72.20
10468;DHT22;5281;48.878;9.394;2023-04-23T15:27:00;24.70;72.40
10468;DHT22;5281;48.878;9.394;2023-04-23T15:29:28;24.70;72.40
10468;DHT22;5281;48.878;9.394;2023-04-23T15:31:56;24.50;72.60
10468;DHT22;5281;48.878;9.394;2023-04-23T15:34:24;24.40;72.50
10468;DHT22;5281;48.878;9.394;2023-04-23T15:36:51;24.30;73.10
10468;DHT22;5281;48.878;9.394;2023-04-23T15:39:17;24.30;72.80
10468;DHT22;5281;48.878;9.394;2023-04-23T15:41:44;24.40;72.50
10468;DHT22;5281;48.878;9.394;2023-04-23T15:44:11;24.50;72.70
10468;DHT22;5281;48.878;9.394;2023-04-23T15:46:38;24.50;73.10
10468;DHT22;5281;48.878;9.394;2023-04-23T15:49:06;24.60;73.30